Time;durP1;ratioP1;P1;durP2;ratioP2;P2;SDS_P1;SDS_P2;PMS_P1;PMS_P2;Temp;Humidity;BMP_temperature;BMP_pressure;BME280_temperature;BME280_humidity;BME280_pressure;Samples;Min_cycle;Max_cycle;Signal;HPM_P1;HPM_P2
2022/03/26 00:00:27;;;;;;;;;;;;;;;;;;5038114;28;19956;-48
2022/03/26 00:02:52;;;;;;;;;;;;;;;;;;5038430;28;19913;-51
2022/03/26 00:05:17;;;;;;;;;;;;;;;;;;5038396;28;19909;-47
2022/03/26 00:07:42;;;;;;;;;;;;;;;;;;5057872;28;19909;-48
2022/03/26 00:10:07;;;;;;;;;;;;;;;;;;5058818;28;19909;-49
2022/03/26 00:12:32;;;;;;;;;;;;;;;;;;5058407;28;19923;-49
2022/03/26 00:14:58;;;;;;;;;;;;;;;;;;5058362;28;20268;-49
2022/03/26 00:17:23;;;;;;;;;;;;;;;;;;5041477;28;19920;-48
2022/03/26 00:19:48;;;;;;;;;;;;;;;;;;5037306;28;19948;-48
2022/03/26 00:22:13;;;;;;;;;;;;;;;;;;5038166;28;19971;-50
2022/03/26 00:24:38;;;;;;;;;;;;;;;;;;5038361;28;19916;-48
2022/03/26 00:27:03;;;;;;;;;;;;;;;;;;5055662;28;19909;-48
2022/03/26 00:29:29;;;;;;;;;;;;;;;;;;5058152;28;19912;-49
2022/03/26 00:31:54;;;;;;;;;;;;;;;;;;5058293;28;19909;-47
2022/03/26 00:34:19;;;;;;;;;;;;;;;;;;5057911;28;19926;-47
2022/03/26 00:36:44;;;;;;;;;;;;;;;;;;5057857;28;19913;-49
2022/03/26 00:39:09;;;;;;;;;;;;;;;;;;5058020;28;19921;-48
2022/03/26 00:41:34;;;;;;;;;;;;;;;;;;5057742;28;19913;-47
2022/03/26 00:44:00;;;;;;;;;;;;;;;;;;5057969;28;19909;-48
2022/03/26 00:46:25;;;;;;;;;;;;;;;;;;5046485;28;19917;-47
2022/03/26 00:48:50;;;;;;;;;;;;;;;;;;5037681;28;20379;-48
2022/03/26 00:51:15;;;;;;;;;;;;;;;;;;5037816;28;19913;-48
2022/03/26 00:53:40;;;;;;;;;;;;;;;;;;5037780;28;20375;-48
2022/03/26 00:56:05;;;;;;;;;;;;;;;;;;5045668;28;19970;-50
2022/03/26 00:58:30;;;;;;;;;;;;;;;;;;5057572;28;19955;-48
2022/03/26 01:00:55;;;;;;;;;;;;;;;;;;5057130;28;20012;-48
2022/03/26 01:03:21;;;;;;;;;;;;;;;;;;5057541;28;19944;-47
2022/03/26 01:05:46;;;;;;;;;;;;;;;;;;5056845;28;19917;-48
2022/03/26 01:08:11;;;;;;;;;;;;;;;;;;5057083;28;19909;-47
2022/03/26 01:10:36;;;;;;;;;;;;;;;;;;5055822;28;19908;-49
2022/03/26 01:13:02;;;;;;;;;;;;;;;;;;5057210;28;20000;-49
2022/03/26 01:15:27;;;;;;;;;;;;;;;;;;5054087;28;19991;-49
2022/03/26 01:17:52;;;;;;;;;;;;;;;;;;5037014;28;19909;-49
2022/03/26 01:20:17;;;;;;;;;;;;;;;;;;5036858;28;19909;-51
2022/03/26 01:22:43;;;;;;;;;;;;;;;;;;5053140;22;19931;-48
2022/03/26 01:25:08;;;;;;;;;;;;;;;;;;5056711;28;20322;-47
2022/03/26 01:27:33;;;;;;;;;;;;;;;;;;5056544;28;19958;-48
2022/03/26 01:29:58;;;;;;;;;;;;;;;;;;5056975;28;19916;-48
2022/03/26 01:32:23;;;;;;;;;;;;;;;;;;5058134;28;19932;-48
2022/03/26 01:34:48;;;;;;;;;;;;;;;;;;5056933;28;19952;-48
2022/03/26 01:37:16;;;;;;;;;;;;;;;;;;5056548;28;20372;-48
2022/03/26 01:39:41;;;;;;;;;;;;;;;;;;5056520;28;19916;-48
2022/03/26 01:42:06;;;;;;;;;;;;;;;;;;5056445;28;19913;-48
2022/03/26 01:44:31;;;;;;;;;;;;;;;;;;5056436;28;19915;-49
2022/03/26 01:46:56;;;;;;;;;;;;;;;;;;5056207;28;19913;-48
2022/03/26 01:49:22;;;;;;;;;;;;;;;;;;5056587;28;20379;-48
2022/03/26 01:51:47;;;;;;;;;;;;;;;;;;5056489;28;19909;-47
2022/03/26 01:54:12;;;;;;;;;;;;;;;;;;5056460;28;19913;-50
2022/03/26 01:56:37;;;;;;;;;;;;;;;;;;5056092;28;20362;-48
2022/03/26 01:59:03;;;;;;;;;;;;;;;;;;5056399;28;20444;-48
2022/03/26 02:01:28;;;;;;;;;;;;;;;;;;5056168;28;19966;-49
2022/03/26 02:03:53;;;;;;;;;;;;;;;;;;5056047;28;19912;-47
2022/03/26 02:06:22;;;;;;;;;;;;;;;;;;5055598;28;19917;-49
2022/03/26 02:08:47;;;;;;;;;;;;;;;;;;5056205;28;20324;-48
2022/03/26 02:11:13;;;;;;;;;;;;;;;;;;5056453;28;19963;-47
2022/03/26 02:13:38;;;;;;;;;;;;;;;;;;5056255;28;20337;-48
2022/03/26 02:16:04;;;;;;;;;;;;;;;;;;5055602;28;19913;-48
2022/03/26 02:18:29;;;;;;;;;;;;;;;;;;5054908;28;19909;-48
2022/03/26 02:20:54;;;;;;;;;;;;;;;;;;5055984;28;20375;-47
2022/03/26 02:23:19;;;;;;;;;;;;;;;;;;5055773;28;19928;-50
2022/03/26 02:25:45;;;;;;;;;;;;;;;;;;5055571;28;19913;-48
2022/03/26 02:28:11;;;;;;;;;;;;;;;;;;5055680;28;19915;-48
2022/03/26 02:30:36;;;;;;;;;;;;;;;;;;5055557;28;19948;-49
2022/03/26 02:33:01;;;;;;;;;;;;;;;;;;5056059;28;19916;-47
2022/03/26 02:35:26;;;;;;;;;;;;;;;;;;5055437;28;19913;-48
2022/03/26 02:37:51;;;;;;;;;;;;;;;;;;5055653;28;19912;-48
2022/03/26 02:40:18;;;;;;;;;;;;;;;;;;5055549;28;19916;-48
2022/03/26 02:42:43;;;;;;;;;;;;;;;;;;5055603;28;19916;-48
2022/03/26 02:45:08;;;;;;;;;;;;;;;;;;5055469;28;19913;-48
2022/03/26 02:47:33;;;;;;;;;;;;;;;;;;5055643;28;19909;-49
2022/03/26 02:49:59;;;;;;;;;;;;;;;;;;5055453;28;20038;-48
2022/03/26 02:52:24;;;;;;;;;;;;;;;;;;5055408;28;20297;-48
2022/03/26 02:54:49;;;;;;;;;;;;;;;;;;5055351;28;19962;-49
2022/03/26 02:57:14;;;;;;;;;;;;;;;;;;5054660;28;20372;-48
2022/03/26 02:59:39;;;;;;;;;;;;;;;;;;5055190;28;20015;-48
2022/03/26 03:02:07;;;;;;;;;;;;;;;;;;5055233;28;19952;-48
2022/03/26 03:04:32;;;;;;;;;;;;;;;;;;5055027;28;20323;-48
2022/03/26 03:06:57;;;;;;;;;;;;;;;;;;5054925;28;19944;-48
2022/03/26 03:09:22;;;;;;;;;;;;;;;;;;5054923;28;19916;-48
2022/03/26 03:11:48;;;;;;;;;;;;;;;;;;5054865;28;20372;-50
2022/03/26 03:14:13;;;;;;;;;;;;;;;;;;5053631;28;19916;-49
2022/03/26 03:16:38;;;;;;;;;;;;;;;;;;5054710;28;19909;-48
2022/03/26 03:19:04;;;;;;;;;;;;;;;;;;5055205;28;20572;-48
2022/03/26 03:21:29;;;;;;;;;;;;;;;;;;5055441;28;19920;-47
2022/03/26 03:23:54;;;;;;;;;;;;;;;;;;5054738;28;19925;-48
2022/03/26 03:26:19;;;;;;;;;;;;;;;;;;5055003;28;19955;-49
2022/03/26 03:28:44;;;;;;;;;;;;;;;;;;5054581;28;19919;-46
2022/03/26 03:31:10;;;;;;;;;;;;;;;;;;5054885;28;20003;-49
2022/03/26 03:33:35;;;;;;;;;;;;;;;;;;5054466;28;19908;-48
2022/03/26 03:36:00;;;;;;;;;;;;;;;;;;5054816;28;19962;-49
2022/03/26 03:38:25;;;;;;;;;;;;;;;;;;5054283;28;19976;-48
2022/03/26 03:40:50;;;;;;;;;;;;;;;;;;5054591;28;19952;-49
2022/03/26 03:43:15;;;;;;;;;;;;;;;;;;5054505;28;19913;-48
2022/03/26 03:45:40;;;;;;;;;;;;;;;;;;5054912;28;19909;-49
2022/03/26 03:48:05;;;;;;;;;;;;;;;;;;5055196;28;19919;-47
2022/03/26 03:50:30;;;;;;;;;;;;;;;;;;5054804;28;20307;-47
2022/03/26 03:52:56;;;;;;;;;;;;;;;;;;5054617;28;20275;-49
2022/03/26 03:55:21;;;;;;;;;;;;;;;;;;5054673;28;19912;-49
2022/03/26 03:57:46;;;;;;;;;;;;;;;;;;5054230;28;20360;-48
2022/03/26 04:00:11;;;;;;;;;;;;;;;;;;5054479;28;20280;-49
2022/03/26 04:02:36;;;;;;;;;;;;;;;;;;5054225;28;19913;-48
2022/03/26 04:05:01;;;;;;;;;;;;;;;;;;5054313;28;19908;-48
2022/03/26 04:07:26;;;;;;;;;;;;;;;;;;5054353;28;20011;-48
2022/03/26 04:09:51;;;;;;;;;;;;;;;;;;5054286;28;20332;-48
2022/03/26 04:12:16;;;;;;;;;;;;;;;;;;5054688;28;19915;-49
2022/03/26 04:14:43;;;;;;;;;;;;;;;;;;5054592;28;19912;-48
2022/03/26 04:17:09;;;;;;;;;;;;;;;;;;5054561;28;19919;-46
2022/03/26 04:19:34;;;;;;;;;;;;;;;;;;5054070;28;19913;-47
2022/03/26 04:21:59;;;;;;;;;;;;;;;;;;5053876;28;19979;-47
2022/03/26 04:24:24;;;;;;;;;;;;;;;;;;5054130;28;20368;-49
2022/03/26 04:26:49;;;;;;;;;;;;;;;;;;5053999;28;19987;-47
2022/03/26 04:29:14;;;;;;;;;;;;;;;;;;5053754;28;19913;-48
2022/03/26 04:31:39;;;;;;;;;;;;;;;;;;5054025;28;19909;-49
2022/03/26 04:34:04;;;;;;;;;;;;;;;;;;5053996;28;19909;-48
2022/03/26 04:36:29;;;;;;;;;;;;;;;;;;5053908;28;19924;-48
2022/03/26 04:38:54;;;;;;;;;;;;;;;;;;5053534;28;20383;-47
2022/03/26 04:41:20;;;;;;;;;;;;;;;;;;5053816;28;19913;-48
2022/03/26 04:43:45;;;;;;;;;;;;;;;;;;5053947;28;19913;-48
2022/03/26 04:46:10;;;;;;;;;;;;;;;;;;5054771;28;20295;-47
2022/03/26 04:48:36;;;;;;;;;;;;;;;;;;5057349;28;19940;-48
2022/03/26 04:51:01;;;;;;;;;;;;;;;;;;5057746;28;19909;-50
2022/03/26 04:53:26;;;;;;;;;;;;;;;;;;5057983;28;19956;-47
2022/03/26 04:55:51;;;;;;;;;;;;;;;;;;5058102;28;20395;-48
2022/03/26 04:58:16;;;;;;;;;;;;;;;;;;5057387;28;19912;-47
2022/03/26 05:00:41;;;;;;;;;;;;;;;;;;5057865;28;19908;-48
2022/03/26 05:03:06;;;;;;;;;;;;;;;;;;5057415;28;19913;-49
2022/03/26 05:05:31;;;;;;;;;;;;;;;;;;5057322;28;19960;-48
2022/03/26 05:07:59;;;;;;;;;;;;;;;;;;5056337;28;20229;-47
2022/03/26 05:10:27;;;;;;;;;;;;;;;;;;5057252;28;19935;-48
2022/03/26 05:12:52;;;;;;;;;;;;;;;;;;5057561;28;20378;-47
2022/03/26 05:15:17;;;;;;;;;;;;;;;;;;5057215;28;19991;-47
2022/03/26 05:17:42;;;;;;;;;;;;;;;;;;5057305;28;19909;-47
2022/03/26 05:20:08;;;;;;;;;;;;;;;;;;5056965;28;19920;-47
2022/03/26 05:22:34;;;;;;;;;;;;;;;;;;5056929;28;19927;-48
2022/03/26 05:24:59;;;;;;;;;;;;;;;;;;5057086;28;19909;-49
2022/03/26 05:27:24;;;;;;;;;;;;;;;;;;5056998;28;19913;-48
2022/03/26 05:29:49;;;;;;;;;;;;;;;;;;5056492;28;20344;-48
2022/03/26 05:32:14;;;;;;;;;;;;;;;;;;5056783;28;19909;-48
2022/03/26 05:34:39;;;;;;;;;;;;;;;;;;5057300;28;19909;-48
2022/03/26 05:37:05;;;;;;;;;;;;;;;;;;5056835;28;19920;-47
2022/03/26 05:39:30;;;;;;;;;;;;;;;;;;5056620;28;19913;-48
2022/03/26 05:41:55;;;;;;;;;;;;;;;;;;5056679;28;19916;-48
2022/03/26 05:44:20;;;;;;;;;;;;;;;;;;5056988;28;19915;-48
2022/03/26 05:46:45;;;;;;;;;;;;;;;;;;5056805;28;20356;-48
2022/03/26 05:49:10;;;;;;;;;;;;;;;;;;5056140;28;20011;-48
2022/03/26 05:51:36;;;;;;;;;;;;;;;;;;5056517;28;20367;-48
2022/03/26 05:54:01;;;;;;;;;;;;;;;;;;5056256;28;19980;-49
2022/03/26 05:56:28;;;;;;;;;;;;;;;;;;5055139;28;21334;-49
2022/03/26 05:58:53;;;;;;;;;;;;;;;;;;5055993;28;19939;-47
2022/03/26 06:01:18;;;;;;;;;;;;;;;;;;5056644;28;19908;-48
2022/03/26 06:03:44;;;;;;;;;;;;;;;;;;5055301;28;19924;-48
2022/03/26 06:06:09;;;;;;;;;;;;;;;;;;5056559;28;20355;-47
2022/03/26 06:08:34;;;;;;;;;;;;;;;;;;5056198;28;19913;-48
2022/03/26 06:10:59;;;;;;;;;;;;;;;;;;5056005;28;19930;-48
2022/03/26 06:13:24;;;;;;;;;;;;;;;;;;5056166;28;19962;-47
2022/03/26 06:15:49;;;;;;;;;;;;;;;;;;5055891;28;19932;-47
2022/03/26 06:18:14;;;;;;;;;;;;;;;;;;5055761;28;19931;-48
2022/03/26 06:20:40;;;;;;;;;;;;;;;;;;5055875;28;19983;-48
2022/03/26 06:23:05;;;;;;;;;;;;;;;;;;5055556;28;19967;-47
2022/03/26 06:25:30;;;;;;;;;;;;;;;;;;5056025;28;19909;-51
2022/03/26 06:27:55;;;;;;;;;;;;;;;;;;5055796;28;19913;-48
2022/03/26 06:30:20;;;;;;;;;;;;;;;;;;5055866;28;20248;-48
2022/03/26 06:32:46;;;;;;;;;;;;;;;;;;5055879;28;19948;-47
2022/03/26 06:35:11;;;;;;;;;;;;;;;;;;5055645;28;20314;-48
2022/03/26 06:37:36;;;;;;;;;;;;;;;;;;5055502;28;20358;-50
2022/03/26 06:40:01;;;;;;;;;;;;;;;;;;5055282;28;19913;-49
2022/03/26 06:42:26;;;;;;;;;;;;;;;;;;5055409;28;19913;-48
2022/03/26 06:44:52;;;;;;;;;;;;;;;;;;5055096;28;19917;-49
2022/03/26 06:47:17;;;;;;;;;;;;;;;;;;5055502;28;20265;-47
2022/03/26 06:49:42;;;;;;;;;;;;;;;;;;5054956;28;19974;-49
2022/03/26 06:52:07;;;;;;;;;;;;;;;;;;5055343;28;20334;-47
2022/03/26 06:54:32;;;;;;;;;;;;;;;;;;5055508;28;19923;-50
2022/03/26 06:56:57;;;;;;;;;;;;;;;;;;5055463;28;19908;-48
2022/03/26 06:59:23;;;;;;;;;;;;;;;;;;5055081;28;20271;-48
2022/03/26 07:01:48;;;;;;;;;;;;;;;;;;5055318;28;19957;-48
2022/03/26 07:04:13;;;;;;;;;;;;;;;;;;5056471;28;19908;-50
2022/03/26 07:06:38;;;;;;;;;;;;;;;;;;5055291;28;19909;-48
2022/03/26 07:09:03;;;;;;;;;;;;;;;;;;5053991;28;19916;-48
2022/03/26 07:11:29;;;;;;;;;;;;;;;;;;5055003;28;19965;-48
2022/03/26 07:13:54;;;;;;;;;;;;;;;;;;5054922;28;19944;-48
2022/03/26 07:16:19;;;;;;;;;;;;;;;;;;5055055;28;20330;-48
2022/03/26 07:18:44;;;;;;;;;;;;;;;;;;5054775;28;19909;-48
2022/03/26 07:21:09;;;;;;;;;;;;;;;;;;5054893;28;19909;-48
2022/03/26 07:23:34;;;;;;;;;;;;;;;;;;5054959;28;20406;-48
2022/03/26 07:26:00;;;;;;;;;;;;;;;;;;5054961;28;19954;-49
2022/03/26 07:28:25;;;;;;;;;;;;;;;;;;5054633;28;20261;-48
2022/03/26 07:30:50;;;;;;;;;;;;;;;;;;5054795;28;20002;-48
2022/03/26 07:33:15;;;;;;;;;;;;;;;;;;5054734;28;20344;-49
2022/03/26 07:35:40;;;;;;;;;;;;;;;;;;5054644;28;19955;-51
2022/03/26 07:38:05;;;;;;;;;;;;;;;;;;5055395;28;20317;-49
2022/03/26 07:40:30;;;;;;;;;;;;;;;;;;5054216;28;20257;-48
2022/03/26 07:42:55;;;;;;;;;;;;;;;;;;5054723;28;19924;-49
2022/03/26 07:45:21;;;;;;;;;;;;;;;;;;5054769;28;19909;-48
2022/03/26 07:47:46;;;;;;;;;;;;;;;;;;5054714;28;19909;-49
2022/03/26 07:50:11;;;;;;;;;;;;;;;;;;5054296;28;19919;-48
2022/03/26 07:52:36;;;;;;;;;;;;;;;;;;5054831;28;19915;-48
2022/03/26 07:55:01;;;;;;;;;;;;;;;;;;5054676;28;19905;-48
2022/03/26 07:57:27;;;;;;;;;;;;;;;;;;5054737;28;19995;-48
2022/03/26 07:59:52;;;;;;;;;;;;;;;;;;5054286;28;19959;-49
2022/03/26 08:02:17;;;;;;;;;;;;;;;;;;5054332;28;19913;-48
2022/03/26 08:04:45;;;;;;;;;;;;;;;;;;5054366;28;19934;-48
2022/03/26 08:07:10;;;;;;;;;;;;;;;;;;5054390;28;19909;-51
2022/03/26 08:09:35;;;;;;;;;;;;;;;;;;5054093;28;19919;-48
2022/03/26 08:12:00;;;;;;;;;;;;;;;;;;5054227;28;19909;-48
2022/03/26 08:14:25;;;;;;;;;;;;;;;;;;5054183;28;20348;-49
2022/03/26 08:16:50;;;;;;;;;;;;;;;;;;5054303;28;19913;-47
2022/03/26 08:19:16;;;;;;;;;;;;;;;;;;5054029;28;19928;-48
2022/03/26 08:21:42;;;;;;;;;;;;;;;;;;5057769;28;19913;-48
2022/03/26 08:24:07;;;;;;;;;;;;;;;;;;5058002;28;19921;-48
2022/03/26 08:26:32;;;;;;;;;;;;;;;;;;5058061;28;19916;-51
2022/03/26 08:28:57;;;;;;;;;;;;;;;;;;5057982;28;20011;-48
2022/03/26 08:31:22;;;;;;;;;;;;;;;;;;5057966;28;20320;-49
2022/03/26 08:33:47;;;;;;;;;;;;;;;;;;5058051;28;20245;-49
2022/03/26 08:36:12;;;;;;;;;;;;;;;;;;5057744;28;19916;-50
2022/03/26 08:38:37;;;;;;;;;;;;;;;;;;5057452;28;19916;-49
2022/03/26 08:41:03;;;;;;;;;;;;;;;;;;5057675;28;19908;-49
2022/03/26 08:43:28;;;;;;;;;;;;;;;;;;5057793;28;19917;-51
2022/03/26 08:45:53;;;;;;;;;;;;;;;;;;5057768;28;19916;-49
2022/03/26 08:48:18;;;;;;;;;;;;;;;;;;5057730;28;19909;-51
2022/03/26 08:50:44;;;;;;;;;;;;;;;;;;5057272;28;20357;-49
2022/03/26 08:53:09;;;;;;;;;;;;;;;;;;5057481;28;19909;-50
2022/03/26 08:55:34;;;;;;;;;;;;;;;;;;5057340;28;19916;-49
2022/03/26 08:57:59;;;;;;;;;;;;;;;;;;5057516;28;20364;-48
2022/03/26 09:00:26;;;;;;;;;;;;;;;;;;5057023;28;19913;-51
2022/03/26 09:02:51;;;;;;;;;;;;;;;;;;5057142;28;20305;-50
2022/03/26 09:05:17;;;;;;;;;;;;;;;;;;5057609;28;19916;-49
2022/03/26 09:07:42;;;;;;;;;;;;;;;;;;5057473;28;20287;-50
2022/03/26 09:10:07;;;;;;;;;;;;;;;;;;5057237;28;19920;-49
2022/03/26 09:12:32;;;;;;;;;;;;;;;;;;5056200;28;19909;-48
2022/03/26 09:14:57;;;;;;;;;;;;;;;;;;5057528;28;19905;-50
2022/03/26 09:17:22;;;;;;;;;;;;;;;;;;5057826;28;19916;-49
2022/03/26 09:19:47;;;;;;;;;;;;;;;;;;5056809;28;20376;-49
2022/03/26 09:22:13;;;;;;;;;;;;;;;;;;5057002;28;19927;-49
2022/03/26 09:24:38;;;;;;;;;;;;;;;;;;5057141;28;19948;-49
2022/03/26 09:27:03;;;;;;;;;;;;;;;;;;5057245;28;19952;-50
2022/03/26 09:29:28;;;;;;;;;;;;;;;;;;5056809;28;19963;-49
2022/03/26 09:31:54;;;;;;;;;;;;;;;;;;5056210;28;19963;-49
2022/03/26 09:34:20;;;;;;;;;;;;;;;;;;5056956;28;19940;-49
2022/03/26 09:36:45;;;;;;;;;;;;;;;;;;5056922;28;19909;-50
2022/03/26 09:39:10;;;;;;;;;;;;;;;;;;5056402;28;19928;-49
2022/03/26 09:41:35;;;;;;;;;;;;;;;;;;5056431;28;20360;-49
2022/03/26 09:44:00;;;;;;;;;;;;;;;;;;5056652;28;19915;-51
2022/03/26 09:46:25;;;;;;;;;;;;;;;;;;5056638;28;20380;-49
2022/03/26 09:48:50;;;;;;;;;;;;;;;;;;5064839;28;20413;-52
2022/03/26 09:51:15;;;;;;;;;;;;;;;;;;5056453;28;20261;-50
2022/03/26 09:53:41;;;;;;;;;;;;;;;;;;5056352;28;19909;-50
2022/03/26 09:56:06;;;;;;;;;;;;;;;;;;5056322;28;19955;-49
2022/03/26 09:58:31;;;;;;;;;;;;;;;;;;5056413;28;19909;-50
2022/03/26 10:00:56;;;;;;;;;;;;;;;;;;5055958;28;19913;-49
2022/03/26 10:03:21;;;;;;;;;;;;;;;;;;5055920;28;20349;-51
2022/03/26 10:05:46;;;;;;;;;;;;;;;;;;5056113;28;19916;-50
2022/03/26 10:08:11;;;;;;;;;;;;;;;;;;5056065;28;19956;-50
2022/03/26 10:10:36;;;;;;;;;;;;;;;;;;5055747;28;20363;-50
2022/03/26 10:13:01;;;;;;;;;;;;;;;;;;5056047;28;19908;-49
2022/03/26 10:15:27;;;;;;;;;;;;;;;;;;5055991;28;19909;-50
2022/03/26 10:17:53;;;;;;;;;;;;;;;;;;5056249;28;19916;-49
2022/03/26 10:20:18;;;;;;;;;;;;;;;;;;5055706;28;20004;-50
2022/03/26 10:22:43;;;;;;;;;;;;;;;;;;5055801;28;19960;-48
2022/03/26 10:25:09;;;;;;;;;;;;;;;;;;5055889;28;19912;-48
2022/03/26 10:27:34;;;;;;;;;;;;;;;;;;5055838;28;20348;-50
2022/03/26 10:29:59;;;;;;;;;;;;;;;;;;5055463;28;19913;-48
2022/03/26 10:32:39;;;;;;;;;;;;;;;;;;5055836;28;19909;-50
2022/03/26 10:35:04;;;;;;;;;;;;;;;;;;5055742;28;20411;-53
2022/03/26 10:37:30;;;;;;;;;;;;;;;;;;5055746;28;19905;-48
2022/03/26 10:39:55;;;;;;;;;;;;;;;;;;5055451;28;19920;-49
2022/03/26 10:42:20;;;;;;;;;;;;;;;;;;5055119;28;19916;-48
2022/03/26 10:44:45;;;;;;;;;;;;;;;;;;5055360;28;19916;-49
2022/03/26 10:47:10;;;;;;;;;;;;;;;;;;5055266;28;20372;-49
2022/03/26 10:49:36;;;;;;;;;;;;;;;;;;5054838;28;20291;-50
2022/03/26 10:52:01;;;;;;;;;;;;;;;;;;5055279;28;20398;-49
2022/03/26 10:54:26;;;;;;;;;;;;;;;;;;5055279;28;19943;-49
2022/03/26 10:56:52;;;;;;;;;;;;;;;;;;5054737;28;19916;-49
2022/03/26 10:59:17;;;;;;;;;;;;;;;;;;5055542;28;19954;-49
2022/03/26 11:01:42;;;;;;;;;;;;;;;;;;5054912;28;19925;-51
2022/03/26 11:04:07;;;;;;;;;;;;;;;;;;5055375;28;19909;-50
2022/03/26 11:06:32;;;;;;;;;;;;;;;;;;5055027;28;19915;-50
2022/03/26 11:09:01;;;;;;;;;;;;;;;;;;5054970;28;20289;-48
2022/03/26 11:11:27;;;;;;;;;;;;;;;;;;5054923;28;19909;-49
2022/03/26 11:13:53;;;;;;;;;;;;;;;;;;5052950;28;20008;-49
2022/03/26 11:16:18;;;;;;;;;;;;;;;;;;5054902;28;19948;-51
2022/03/26 11:18:43;;;;;;;;;;;;;;;;;;5054856;28;19916;-50
2022/03/26 11:21:08;;;;;;;;;;;;;;;;;;5055334;28;19905;-51
2022/03/26 11:23:33;;;;;;;;;;;;;;;;;;5054913;28;19943;-51
2022/03/26 11:25:58;;;;;;;;;;;;;;;;;;5054948;28;19959;-49
2022/03/26 11:28:23;;;;;;;;;;;;;;;;;;5054915;28;19909;-50
2022/03/26 11:30:48;;;;;;;;;;;;;;;;;;5054527;28;19921;-50
2022/03/26 11:33:14;;;;;;;;;;;;;;;;;;5054835;28;19932;-52
2022/03/26 11:35:40;;;;;;;;;;;;;;;;;;5054851;28;19908;-51
2022/03/26 11:38:05;;;;;;;;;;;;;;;;;;5054784;28;19916;-49
2022/03/26 11:40:30;;;;;;;;;;;;;;;;;;5054527;28;19920;-49
2022/03/26 11:42:55;;;;;;;;;;;;;;;;;;5054507;28;20352;-51
2022/03/26 11:50:48;;;;;;;;;;;;;;;;;;5054034;28;19963;-49
2022/03/26 11:53:14;;;;;;;;;;;;;;;;;;5054342;28;19948;-50
2022/03/26 11:55:39;;;;;;;;;;;;;;;;;;5058385;28;19908;-50
2022/03/26 11:58:04;;;;;;;;;;;;;;;;;;5061098;28;19916;-51
2022/03/26 12:00:29;;;;;;;;;;;;;;;;;;5061119;28;19916;-51
2022/03/26 12:02:54;;;;;;;;;;;;;;;;;;5060965;28;19917;-50
2022/03/26 12:08:03;;;;;;;;;;;;;;;;;;5061093;28;19970;-51
2022/03/26 12:10:28;;;;;;;;;;;;;;;;;;5061423;28;19908;-48
2022/03/26 12:12:53;;;;;;;;;;;;;;;;;;5061247;28;20351;-49
2022/03/26 12:15:19;;;;;;;;;;;;;;;;;;5061263;28;19962;-50
2022/03/26 12:17:44;;;;;;;;;;;;;;;;;;5059891;28;19963;-49
2022/03/26 12:20:09;;;;;;;;;;;;;;;;;;5060826;28;20437;-48
2022/03/26 12:22:34;;;;;;;;;;;;;;;;;;5060569;28;19921;-49
2022/03/26 12:25:00;;;;;;;;;;;;;;;;;;5060914;28;20279;-48
2022/03/26 12:27:25;;;;;;;;;;;;;;;;;;5060706;28;19930;-49
2022/03/26 12:29:50;;;;;;;;;;;;;;;;;;5060653;28;19908;-51
2022/03/26 12:32:15;;;;;;;;;;;;;;;;;;5060317;28;20320;-50
2022/03/26 12:34:41;;;;;;;;;;;;;;;;;;5060743;28;20055;-51
2022/03/26 12:37:06;;;;;;;;;;;;;;;;;;5060682;28;19956;-49
2022/03/26 12:39:31;;;;;;;;;;;;;;;;;;5060693;28;19955;-49
2022/03/26 12:41:56;;;;;;;;;;;;;;;;;;5060928;28;19966;-48
2022/03/26 12:44:24;;;;;;;;;;;;;;;;;;5061061;28;19938;-50
2022/03/26 12:46:49;;;;;;;;;;;;;;;;;;5060800;28;19909;-51
2022/03/26 12:49:14;;;;;;;;;;;;;;;;;;5060722;28;20249;-52
2022/03/26 12:51:39;;;;;;;;;;;;;;;;;;5060645;28;19909;-48
2022/03/26 12:54:04;;;;;;;;;;;;;;;;;;5060559;28;19967;-50
2022/03/26 12:56:29;;;;;;;;;;;;;;;;;;5060637;28;19909;-49
2022/03/26 12:58:58;;;;;;;;;;;;;;;;;;5060421;28;19939;-48
2022/03/26 13:01:24;;;;;;;;;;;;;;;;;;5060358;28;20360;-50
2022/03/26 13:03:49;;;;;;;;;;;;;;;;;;5060497;28;19920;-49
2022/03/26 13:06:15;;;;;;;;;;;;;;;;;;5050783;28;19931;-51
2022/03/26 13:08:42;;;;;;;;;;;;;;;;;;5056712;28;20360;-48
2022/03/26 13:11:07;;;;;;;;;;;;;;;;;;5057345;28;19913;-49
2022/03/26 13:13:32;;;;;;;;;;;;;;;;;;5057238;28;20016;-49
2022/03/26 13:15:57;;;;;;;;;;;;;;;;;;5056496;28;19952;-48
2022/03/26 13:18:22;;;;;;;;;;;;;;;;;;5057087;28;20358;-49
2022/03/26 13:20:48;;;;;;;;;;;;;;;;;;5056983;28;19912;-52
2022/03/26 13:23:13;;;;;;;;;;;;;;;;;;5051277;23;19983;-49
2022/03/26 13:25:38;;;;;;;;;;;;;;;;;;5036905;28;19909;-49
2022/03/26 13:28:03;;;;;;;;;;;;;;;;;;5037172;28;19963;-49
2022/03/26 13:30:28;;;;;;;;;;;;;;;;;;5036895;28;20000;-49
2022/03/26 13:32:55;;;;;;;;;;;;;;;;;;5036937;28;20016;-49
2022/03/26 13:35:21;;;;;;;;;;;;;;;;;;5036841;28;19909;-50
2022/03/26 13:37:46;;;;;;;;;;;;;;;;;;5036845;28;20071;-52
2022/03/26 13:40:11;;;;;;;;;;;;;;;;;;5036785;28;19940;-50
2022/03/26 13:42:37;;;;;;;;;;;;;;;;;;5036987;28;19917;-50
2022/03/26 13:45:02;;;;;;;;;;;;;;;;;;5036636;28;20008;-51
2022/03/26 13:47:27;;;;;;;;;;;;;;;;;;5036604;28;20391;-52
2022/03/26 13:49:52;;;;;;;;;;;;;;;;;;5036498;28;19988;-49
2022/03/26 13:52:17;;;;;;;;;;;;;;;;;;5036641;28;19913;-51
2022/03/26 13:54:42;;;;;;;;;;;;;;;;;;5036626;28;19909;-50
2022/03/26 13:57:07;;;;;;;;;;;;;;;;;;5036933;28;20395;-48
2022/03/26 13:59:35;;;;;;;;;;;;;;;;;;5036419;28;19913;-49
2022/03/26 14:02:01;;;;;;;;;;;;;;;;;;5036079;28;19960;-51
2022/03/26 14:04:26;;;;;;;;;;;;;;;;;;5036237;28;19948;-50
2022/03/26 14:06:52;;;;;;;;;;;;;;;;;;5036704;28;19916;-48
2022/03/26 14:09:17;;;;;;;;;;;;;;;;;;5036601;28;19948;-49
2022/03/26 14:11:42;;;;;;;;;;;;;;;;;;5036298;28;19945;-49
2022/03/26 14:14:07;;;;;;;;;;;;;;;;;;5036302;28;19948;-51
2022/03/26 14:16:32;;;;;;;;;;;;;;;;;;5036091;28;19909;-50
2022/03/26 14:18:57;;;;;;;;;;;;;;;;;;5035842;28;19916;-48
2022/03/26 14:21:23;;;;;;;;;;;;;;;;;;5035892;28;19909;-49
2022/03/26 14:23:48;;;;;;;;;;;;;;;;;;5035729;28;19968;-49
2022/03/26 14:26:13;;;;;;;;;;;;;;;;;;5035846;28;19996;-49
2022/03/26 14:28:40;;;;;;;;;;;;;;;;;;5035943;28;20317;-50
2022/03/26 14:31:05;;;;;;;;;;;;;;;;;;5035819;28;19913;-51
2022/03/26 14:33:31;;;;;;;;;;;;;;;;;;5035965;28;20399;-50
2022/03/26 14:35:56;;;;;;;;;;;;;;;;;;5035857;28;19909;-49
2022/03/26 14:38:21;;;;;;;;;;;;;;;;;;5036099;28;19909;-49
2022/03/26 14:40:46;;;;;;;;;;;;;;;;;;5035684;28;20465;-50
2022/03/26 14:43:11;;;;;;;;;;;;;;;;;;5035582;28;19917;-50
2022/03/26 14:45:36;;;;;;;;;;;;;;;;;;5035426;28;19927;-49
2022/03/26 14:48:01;;;;;;;;;;;;;;;;;;5035661;28;19996;-49
2022/03/26 14:50:26;;;;;;;;;;;;;;;;;;5021366;28;19913;-49
2022/03/26 14:52:52;;;;;;;;;;;;;;;;;;5015498;28;19917;-50
2022/03/26 14:55:17;;;;;;;;;;;;;;;;;;5015549;28;20331;-52
2022/03/26 14:57:42;;;;;;;;;;;;;;;;;;5025539;28;20423;-49
2022/03/26 15:00:07;;;;;;;;;;;;;;;;;;5055122;28;19909;-51
2022/03/26 15:02:33;;;;;;;;;;;;;;;;;;5049627;28;19917;-50
2022/03/26 15:04:59;;;;;;;;;;;;;;;;;;5034678;28;19919;-53
2022/03/26 15:07:24;;;;;;;;;;;;;;;;;;5035163;28;20364;-50
2022/03/26 15:09:49;;;;;;;;;;;;;;;;;;5035039;28;19992;-50
2022/03/26 15:12:15;;;;;;;;;;;;;;;;;;5034966;28;20321;-52
2022/03/26 15:14:40;;;;;;;;;;;;;;;;;;5035083;28;20253;-53
2022/03/26 15:17:05;;;;;;;;;;;;;;;;;;5035003;28;19913;-50
2022/03/26 15:19:30;;;;;;;;;;;;;;;;;;5034764;28;20019;-51
2022/03/26 15:21:56;;;;;;;;;;;;;;;;;;5034627;28;20019;-50
2022/03/26 15:24:21;;;;;;;;;;;;;;;;;;5035103;28;19959;-50
2022/03/26 15:26:46;;;;;;;;;;;;;;;;;;5034200;28;19909;-49
2022/03/26 15:29:11;;;;;;;;;;;;;;;;;;5054184;28;19954;-50
2022/03/26 15:31:40;;;;;;;;;;;;;;;;;;5054276;28;20375;-49
2022/03/26 15:34:05;;;;;;;;;;;;;;;;;;5054571;28;19919;-49
2022/03/26 15:36:30;;;;;;;;;;;;;;;;;;5054555;28;20003;-49
2022/03/26 15:38:55;;;;;;;;;;;;;;;;;;5054644;28;19909;-50
2022/03/26 15:41:20;;;;;;;;;;;;;;;;;;5054760;28;19917;-53
2022/03/26 15:43:45;;;;;;;;;;;;;;;;;;5054616;28;20260;-50
2022/03/26 15:46:11;;;;;;;;;;;;;;;;;;5054838;28;20007;-50
2022/03/26 15:48:36;;;;;;;;;;;;;;;;;;5054639;28;19909;-49
2022/03/26 15:51:01;;;;;;;;;;;;;;;;;;5054647;28;19909;-49
2022/03/26 15:53:26;;;;;;;;;;;;;;;;;;5054327;28;20401;-52
2022/03/26 15:55:51;;;;;;;;;;;;;;;;;;5054243;28;19915;-52
2022/03/26 15:58:16;;;;;;;;;;;;;;;;;;5041487;28;19913;-49
2022/03/26 16:00:41;;;;;;;;;;;;;;;;;;5034350;28;20276;-51
2022/03/26 16:03:06;;;;;;;;;;;;;;;;;;5034373;28;19917;-49
2022/03/26 16:05:32;;;;;;;;;;;;;;;;;;5034340;28;19956;-49
2022/03/26 16:07:59;;;;;;;;;;;;;;;;;;5034652;28;19962;-50
2022/03/26 16:10:24;;;;;;;;;;;;;;;;;;5034488;28;19977;-50
2022/03/26 16:12:49;;;;;;;;;;;;;;;;;;5034135;28;19910;-52
2022/03/26 16:15:16;;;;;;;;;;;;;;;;;;5034412;28;19967;-51
2022/03/26 16:17:41;;;;;;;;;;;;;;;;;;5034395;28;20315;-51
2022/03/26 16:20:06;;;;;;;;;;;;;;;;;;5034347;28;19913;-52
2022/03/26 16:22:31;;;;;;;;;;;;;;;;;;5033907;28;20088;-50
2022/03/26 16:24:56;;;;;;;;;;;;;;;;;;5033504;28;20348;-52
2022/03/26 16:27:22;;;;;;;;;;;;;;;;;;5021661;28;20338;-49
2022/03/26 16:29:47;;;;;;;;;;;;;;;;;;5033322;28;19909;-49
2022/03/26 16:32:12;;;;;;;;;;;;;;;;;;5034229;28;19916;-50
2022/03/26 16:34:37;;;;;;;;;;;;;;;;;;5034220;28;20007;-49
2022/03/26 16:37:02;;;;;;;;;;;;;;;;;;5034246;28;19909;-50
2022/03/26 16:39:27;;;;;;;;;;;;;;;;;;5034311;28;19924;-51